TimeMST,TemperatureF,Dew PointF,Humidity,Sea Level PressureIn,VisibilityMPH,Wind Direction,Wind SpeedMPH,Gust SpeedMPH,PrecipitationIn,Events,Conditions,WindDirDegrees,DateUTC
12:53 AM,36.0,-6.0,17,30.11,10.0,Calm,Calm,-,N/A,,Clear,0,2013-01-23 07:53:00
1:53 AM,28.9,1.9,32,30.14,10.0,West,9.2,-,N/A,,Clear,260,2013-01-23 08:53:00
2:53 AM,30.0,3.0,32,30.14,10.0,West,17.3,-,N/A,,Clear,260,2013-01-23 09:53:00
3:53 AM,28.9,3.0,33,30.15,10.0,West,15.0,-,N/A,,Clear,260,2013-01-23 10:53:00
4:53 AM,35.1,3.9,27,30.13,10.0,WSW,29.9,34.5,N/A,,Clear,240,2013-01-23 11:53:00
5:53 AM,35.1,3.9,27,30.13,10.0,WSW,31.1,-,N/A,,Clear,240,2013-01-23 12:53:00
6:53 AM,35.1,5.0,28,30.18,10.0,SW,26.5,34.5,N/A,,Clear,230,2013-01-23 13:53:00
7:53 AM,34.0,7.0,32,30.17,10.0,SW,21.9,-,N/A,,Clear,220,2013-01-23 14:53:00
8:53 AM,37.0,9.0,31,30.23,10.0,SW,17.3,-,N/A,,Clear,230,2013-01-23 15:53:00
9:53 AM,39.0,10.9,32,30.22,10.0,SW,20.7,-,N/A,,Clear,230,2013-01-23 16:53:00
10:53 AM,43.0,12.9,30,30.14,10.0,SW,21.9,-,N/A,,Clear,220,2013-01-23 17:53:00
11:53 AM,46.0,14.0,28,30.10,10.0,SW,21.9,-,N/A,,Clear,230,2013-01-23 18:53:00
12:53 PM,48.0,14.0,26,30.06,10.0,SW,18.4,-,N/A,,Clear,220,2013-01-23 19:53:00
1:53 PM,48.0,14.0,26,30.07,10.0,WSW,17.3,-,N/A,,Clear,240,2013-01-23 20:53:00
2:53 PM,46.0,17.1,31,30.10,10.0,SW,6.9,-,N/A,,Clear,230,2013-01-23 21:53:00
3:53 PM,45.0,14.0,29,30.13,10.0,SW,13.8,-,N/A,,Clear,230,2013-01-23 22:53:00
4:53 PM,46.0,9.0,22,30.09,10.0,West,10.4,17.3,N/A,,Clear,260,2013-01-23 23:53:00
5:53 PM,39.0,15.1,38,30.13,10.0,SSW,13.8,-,N/A,,Clear,210,2013-01-24 00:53:00
6:53 PM,43.0,9.0,25,30.09,10.0,SSW,15.0,-,N/A,,Clear,200,2013-01-24 01:53:00
7:53 PM,42.1,10.0,27,30.09,10.0,SW,18.4,23.0,N/A,,Clear,230,2013-01-24 02:53:00
8:09 PM,42.8,10.4,27,30.16,10.0,WSW,21.9,-,N/A,,Clear,240,2013-01-24 03:09:00
8:53 PM,41.0,10.0,28,30.09,10.0,WSW,18.4,-,N/A,,Clear,240,2013-01-24 03:53:00
10:53 PM,39.0,9.0,29,30.05,10.0,SW,15.0,23.0,N/A,,Clear,230,2013-01-24 05:53:00
11:53 PM,39.0,9.0,29,30.02,10.0,SW,20.7,33.4,N/A,,Clear,220,2013-01-24 06:53:00